createdAt,value
2023-01-12T00:02:47.117Z,98476.41
2023-01-12T00:05:51.956Z,98477.03
2023-01-12T00:08:55.583Z,98478.66
2023-01-12T00:11:59.091Z,98486.91
2023-01-12T00:15:02.767Z,98488.03
2023-01-12T00:18:06.219Z,98491.13
2023-01-12T00:21:11.475Z,98497.47
2023-01-12T00:24:16.131Z,98495.00
2023-01-12T00:27:22.500Z,98506.84
2023-01-12T00:30:26.010Z,98506.84
2023-01-12T00:33:29.689Z,98512.34
2023-01-12T00:36:34.410Z,98516.22
2023-01-12T00:39:42.967Z,98498.88
2023-01-12T00:43:06.288Z,98510.72
2023-01-12T00:46:10.667Z,98513.47
2023-01-12T00:49:13.996Z,98506.34
2023-01-12T00:52:30.444Z,98508.59
2023-01-12T00:55:34.633Z,98512.97
2023-01-12T00:58:38.125Z,98517.66
2023-01-12T01:01:41.632Z,98523.16
2023-01-12T01:04:45.241Z,98530.59
2023-01-12T01:07:49.885Z,98522.34
2023-01-12T01:11:02.881Z,98527.03
2023-01-12T01:14:06.701Z,98534.47
2023-01-12T01:17:10.808Z,98539.16
2023-01-12T01:20:14.467Z,98533.38
2023-01-12T01:23:19.593Z,98532.00
2023-01-12T01:26:25.534Z,98531.72
2023-01-12T01:29:29.120Z,98533.63
2023-01-12T01:32:32.417Z,98517.13
2023-01-12T01:35:37.129Z,98528.13
2023-01-12T01:38:45.067Z,98532.81
2023-01-12T01:41:49.243Z,98534.75
2023-01-12T01:44:57.927Z,98535.88
2023-01-12T01:48:04.355Z,98548.84
2023-01-12T01:51:14.805Z,98553.22
2023-01-12T01:54:20.196Z,98548.84
2023-01-12T01:57:32.258Z,98543.31
2023-01-12T02:00:39.179Z,98556.28
2023-01-12T02:03:43.909Z,98553.53
2023-01-12T02:06:48.421Z,98559.03
2023-01-12T02:09:53.541Z,98551.06
2023-01-12T02:13:14.824Z,98551.06
2023-01-12T02:16:25.662Z,98550.59
2023-01-12T02:20:04.466Z,98560.47
2023-01-12T02:24:04.951Z,98553.34
2023-01-12T02:27:34.704Z,98561.63
2023-01-12T02:31:29.433Z,98561.63
2023-01-12T02:34:47.375Z,98567.44
2023-01-12T02:38:04.772Z,98567.44
2023-01-12T02:41:44.292Z,98569.38
2023-01-12T02:44:59.671Z,98581.19
2023-01-12T02:48:14.479Z,98582.00
2023-01-12T02:51:28.286Z,98578.75
2023-01-12T02:54:34.556Z,98583.13
2023-01-12T02:57:39.222Z,98571.31
2023-01-12T03:00:49.344Z,98576.81
2023-01-12T03:04:01.064Z,98569.66
2023-01-12T03:07:42.011Z,98571.31
2023-01-12T03:11:08.385Z,98579.06
2023-01-12T03:14:15.743Z,98578.22
2023-01-12T03:17:30.967Z,98574.34
2023-01-12T03:20:43.018Z,98571.59
2023-01-12T03:23:51.463Z,98574.34
2023-01-12T03:27:12.019Z,98575.19
2023-01-12T03:30:20.972Z,98588.13
2023-01-12T03:33:27.152Z,98589.25
2023-01-12T03:36:46.608Z,98590.88
2023-01-12T03:40:01.575Z,98578.22
2023-01-12T03:43:13.603Z,98581.81
2023-01-12T03:46:27.323Z,98582.09
2023-01-12T03:49:39.247Z,98583.75
2023-01-12T03:52:47.078Z,98579.88
2023-01-12T03:55:57.439Z,98564.25
2023-01-12T03:59:01.839Z,98581.81
2023-01-12T04:02:05.412Z,98590.06
2023-01-12T04:05:12.984Z,98589.25
2023-01-12T04:08:19.300Z,98589.25
2023-01-12T04:11:40.098Z,98586.19
2023-01-12T04:14:48.103Z,98582.31
2023-01-12T04:17:51.866Z,98591.38
2023-01-12T04:20:55.173Z,98595.78
2023-01-12T04:24:00.365Z,98594.13
2023-01-12T04:27:03.558Z,98592.50
2023-01-12T04:30:09.431Z,98591.38
2023-01-12T04:33:12.753Z,98598.81
2023-01-12T04:36:16.550Z,98587.00
2023-01-12T04:39:21.237Z,98599.66
2023-01-12T04:42:42.382Z,98596.06
2023-01-12T04:45:47.633Z,98599.66
2023-01-12T04:48:51.353Z,98607.91
2023-01-12T04:51:54.733Z,98610.66
2023-01-12T04:54:59.913Z,98616.97
2023-01-12T04:58:03.192Z,98609.03
2023-01-12T05:01:11.966Z,98605.47
2023-01-12T05:04:15.777Z,98599.66
2023-01-12T05:07:19.881Z,98595.56
2023-01-12T05:10:23.377Z,98601.59
2023-01-12T05:13:32.216Z,98612.91
2023-01-12T05:16:35.494Z,98607.41
2023-01-12T05:19:39.241Z,98606.56
2023-01-12T05:22:42.566Z,98601.88
2023-01-12T05:25:47.422Z,98610.16
2023-01-12T05:28:51.893Z,98610.16
2023-01-12T05:31:55.878Z,98608.50
2023-01-12T05:34:59.273Z,98611.28
2023-01-12T05:38:03.001Z,98608.50
2023-01-12T05:41:10.205Z,98607.50
2023-01-12T05:44:12.908Z,98620.66
2023-01-12T05:47:16.176Z,98619.00
2023-01-12T05:50:19.946Z,98633.91
2023-01-12T05:53:43.572Z,98628.91
2023-01-12T05:56:49.865Z,98619.00
2023-01-12T05:59:53.133Z,98621.78
2023-01-12T06:02:56.903Z,98630.03
2023-01-12T06:06:00.149Z,98622.88
2023-01-12T06:09:04.426Z,98631.44
2023-01-12T06:12:40.958Z,98629.50
2023-01-12T06:15:44.682Z,98633.91
2023-01-12T06:18:48.024Z,98638.59
2023-01-12T06:21:52.533Z,98633.09
2023-01-12T06:24:55.858Z,98649.59
2023-01-12T06:28:00.983Z,98636.13
2023-01-12T06:31:07.021Z,98633.09
2023-01-12T06:34:12.304Z,98638.59
2023-01-12T06:37:17.001Z,98637.47
2023-01-12T06:40:20.536Z,98637.97
2023-01-12T06:43:25.521Z,98639.63
2023-01-12T06:46:29.943Z,98641.56
2023-01-12T06:49:33.500Z,98644.31
2023-01-12T06:52:36.948Z,98638.28
2023-01-12T06:55:40.263Z,98641.03
2023-01-12T06:58:45.646Z,98647.38
2023-01-12T07:01:49.107Z,98651.22
2023-01-12T07:04:52.675Z,98647.38
2023-01-12T07:08:00.827Z,98650.41
2023-01-12T07:11:08.142Z,98650.41
2023-01-12T07:14:12.862Z,98640.53
2023-01-12T07:17:16.896Z,98645.41
2023-01-12T07:20:20.117Z,98641.56
2023-01-12T07:23:23.695Z,98655.31
2023-01-12T07:26:26.915Z,98650.31
2023-01-12T07:29:31.909Z,98654.72
2023-01-12T07:32:35.136Z,98663.47
2023-01-12T07:35:38.709Z,98662.31
2023-01-12T07:38:43.179Z,98662.31
2023-01-12T07:42:04.462Z,98660.38
2023-01-12T07:45:10.830Z,98653.59
2023-01-12T07:48:15.966Z,98659.28
2023-01-12T07:51:19.467Z,98664.97
2023-01-12T07:54:24.207Z,98666.09
2023-01-12T07:57:28.611Z,98667.75
2023-01-12T08:00:33.995Z,98662.22
2023-01-12T08:03:37.221Z,98656.22
2023-01-12T08:06:40.948Z,98653.16
2023-01-12T08:09:44.297Z,98666.66
2023-01-12T08:12:48.368Z,98668.56
2023-01-12T08:15:54.771Z,98669.41
2023-01-12T08:19:04.000Z,98663.34
2023-01-12T08:22:15.759Z,98670.50
2023-01-12T08:25:23.145Z,98666.91
2023-01-12T08:28:34.746Z,98653.47
2023-01-12T08:31:40.579Z,98658.97
2023-01-12T08:34:48.411Z,98656.22
2023-01-12T08:37:52.203Z,98652.66
2023-01-12T08:41:12.773Z,98659.28
2023-01-12T08:44:16.332Z,98664.47
2023-01-12T08:47:27.073Z,98666.72
2023-01-12T08:50:30.695Z,98671.09
2023-01-12T08:53:34.179Z,98674.66
2023-01-12T08:56:38.052Z,98676.59
2023-01-12T08:59:41.477Z,98673.84
2023-01-12T09:02:46.516Z,98673.84
2023-01-12T09:05:50.116Z,98675.78
2023-01-12T09:08:56.074Z,98665.91
2023-01-12T09:11:59.571Z,98666.72
2023-01-12T09:15:03.803Z,98674.97
2023-01-12T09:18:08.524Z,98665.91
2023-01-12T09:21:14.779Z,98668.34
2023-01-12T09:24:18.116Z,98670.59
2023-01-12T09:27:21.626Z,98659.91
2023-01-12T09:30:25.088Z,98653.06
2023-01-12T09:33:30.423Z,98649.28
2023-01-12T09:36:37.021Z,98643.88
2023-01-12T09:39:40.676Z,98645.34
2023-01-12T09:43:09.086Z,98631.38
2023-01-12T09:46:35.207Z,98634.72
2023-01-12T09:49:55.816Z,98622.59
2023-01-12T09:53:08.389Z,98627.28
2023-01-12T09:56:22.682Z,98630.34
2023-01-12T09:59:49.625Z,98625.66
2023-01-12T10:03:07.086Z,98631.97
2023-01-12T10:06:18.681Z,98625.66
2023-01-12T10:09:24.227Z,98622.09
2023-01-12T10:12:41.929Z,98619.34
2023-01-12T10:15:54.829Z,98617.41
2023-01-12T10:19:04.145Z,98608.03
2023-01-12T10:22:38.169Z,98606.59
2023-01-12T10:25:46.181Z,98609.66
2023-01-12T10:28:53.550Z,98620.66
2023-01-12T10:31:57.268Z,98614.84
2023-01-12T10:35:00.980Z,98607.72
2023-01-12T10:38:22.807Z,98599.97
2023-01-12T10:41:27.780Z,98599.47
2023-01-12T10:44:31.432Z,98599.16
2023-01-12T10:47:35.101Z,98590.91
2023-01-12T10:50:38.646Z,98575.81
2023-01-12T10:53:50.430Z,98588.44
2023-01-12T10:57:02.102Z,98582.13
2023-01-12T11:00:07.193Z,98577.44
2023-01-12T11:03:33.066Z,98584.56
2023-01-12T11:06:37.183Z,98574.69
2023-01-12T11:09:43.796Z,98572.53
2023-01-12T11:12:57.291Z,98575.00
2023-01-12T11:16:12.679Z,98565.63
2023-01-12T11:19:21.372Z,98554.31
2023-01-12T11:22:31.433Z,98546.03
2023-01-12T11:25:44.503Z,98551.56
2023-01-12T11:28:53.232Z,98544.09
2023-01-12T11:32:04.834Z,98535.03
2023-01-12T11:35:28.146Z,98528.41
2023-01-12T11:38:42.078Z,98524.03
2023-01-12T11:42:05.547Z,98520.16
2023-01-12T11:45:20.415Z,98517.72
2023-01-12T11:48:33.730Z,98520.16
2023-01-12T11:51:38.503Z,98517.41
2023-01-12T11:54:43.062Z,98509.75
2023-01-12T11:58:14.584Z,98518.22
2023-01-12T12:01:32.350Z,98516.28
2023-01-12T12:04:57.763Z,98515.47
2023-01-12T12:08:21.951Z,98509.16
2023-01-12T12:11:42.929Z,98516.78
2023-01-12T12:15:07.048Z,98513.22
2023-01-12T12:18:27.954Z,98512.41
2023-01-12T12:21:48.839Z,98506.91
2023-01-12T12:25:24.525Z,98503.34
2023-01-12T12:29:03.451Z,98505.78
2023-01-12T12:32:31.191Z,98504.16
2023-01-12T12:35:58.463Z,98500.28
2023-01-12T12:39:35.685Z,98500.28
2023-01-12T12:43:19.419Z,98498.34
2023-01-12T12:46:37.676Z,98493.63
2023-01-12T12:49:43.245Z,98488.94
2023-01-12T12:53:03.095Z,98500.75
2023-01-12T12:56:11.673Z,98483.13
2023-01-12T12:59:52.942Z,98480.34
2023-01-12T13:02:58.570Z,98492.69
2023-01-12T13:06:21.638Z,98465.16
2023-01-12T13:09:43.138Z,98477.50
2023-01-12T13:12:59.937Z,98466.50
2023-01-12T13:16:46.981Z,98465.69
2023-01-12T13:20:24.634Z,98465.38
2023-01-12T13:24:27.584Z,98467.00
2023-01-12T13:27:56.478Z,98455.16
2023-01-12T13:31:02.449Z,98455.97
2023-01-12T13:34:46.315Z,98457.09
2023-01-12T13:38:09.861Z,98447.72
2023-01-12T13:41:44.256Z,98442.22
2023-01-12T13:44:48.080Z,98452.94
2023-01-12T13:47:54.734Z,98453.22
2023-01-12T13:51:03.399Z,98453.22
2023-01-12T13:54:13.506Z,98452.09
2023-01-12T13:57:22.805Z,98451.00
2023-01-12T14:00:32.418Z,98438.03
2023-01-12T14:04:10.163Z,98434.47
2023-01-12T14:07:30.223Z,98427.03
2023-01-12T14:10:43.383Z,98423.47
2023-01-12T14:14:41.138Z,98427.03
2023-01-12T14:17:53.130Z,98433.34
2023-01-12T14:20:59.485Z,98431.72
2023-01-12T14:24:17.513Z,98426.53
2023-01-12T14:27:26.764Z,98423.47
2023-01-12T14:30:34.870Z,98425.41
2023-01-12T14:33:41.126Z,98426.22
2023-01-12T14:36:46.837Z,98413.56
2023-01-12T14:39:50.397Z,98410.81
2023-01-12T14:43:12.387Z,98412.25
2023-01-12T14:46:26.796Z,98405.31
2023-01-12T14:49:33.197Z,98409.19
2023-01-12T14:52:37.011Z,98398.19
2023-01-12T14:55:41.666Z,98402.25
2023-01-12T14:58:47.790Z,98395.94
2023-01-12T15:01:54.038Z,98397.56
2023-01-12T15:05:02.354Z,98393.47
2023-01-12T15:08:26.664Z,98398.19
2023-01-12T15:11:34.811Z,98392.34
2023-01-12T15:14:38.525Z,98392.34
2023-01-12T15:18:00.802Z,98390.72
2023-01-12T15:21:22.965Z,98399.00
2023-01-12T15:24:46.966Z,98409.19
2023-01-12T15:27:50.715Z,98409.19
2023-01-12T15:30:55.616Z,98402.06
2023-01-12T15:34:02.701Z,98393.47
2023-01-12T15:37:05.882Z,98395.41
2023-01-12T15:40:13.897Z,98388.59
2023-01-12T15:43:18.886Z,98394.59
2023-01-12T15:46:22.366Z,98404.31
2023-01-12T15:49:26.962Z,98407.56
2023-01-12T15:52:33.268Z,98388.59
2023-01-12T15:55:36.694Z,98396.53
2023-01-12T15:58:40.666Z,98392.16
2023-01-12T16:01:49.047Z,98390.22
2023-01-12T16:04:54.214Z,98390.22
2023-01-12T16:07:57.834Z,98386.66
2023-01-12T16:11:18.343Z,98386.66
2023-01-12T16:14:21.626Z,98378.41
2023-01-12T16:17:25.786Z,98382.28
2023-01-12T16:20:30.500Z,98381.78
2023-01-12T16:23:34.436Z,98385.84
2023-01-12T16:26:37.760Z,98382.28
2023-01-12T16:29:41.434Z,98370.16
2023-01-12T16:32:47.391Z,98363.00
2023-01-12T16:35:56.444Z,98390.84
2023-01-12T16:38:59.949Z,98377.91
2023-01-12T16:42:04.240Z,98369.63
2023-01-12T16:45:08.642Z,98371.06
2023-01-12T16:48:12.513Z,98375.16
2023-01-12T16:51:19.665Z,98367.19
2023-01-12T16:54:23.826Z,98357.00
2023-01-12T16:57:27.045Z,98373.53
2023-01-12T17:00:32.408Z,98369.13
2023-01-12T17:03:36.188Z,98373.53
2023-01-12T17:06:41.892Z,98369.13
2023-01-12T17:09:45.791Z,98361.69
2023-01-12T17:12:54.460Z,98366.06
2023-01-12T17:16:00.538Z,98360.88
2023-01-12T17:19:04.407Z,98360.25
2023-01-12T17:22:10.272Z,98370.16
2023-01-12T17:25:15.783Z,98359.44
2023-01-12T17:28:19.045Z,98360.25
2023-01-12T17:31:23.070Z,98361.06
2023-01-12T17:34:29.687Z,98359.13
2023-01-12T17:37:35.074Z,98361.06
2023-01-12T17:40:40.374Z,98353.31
2023-01-12T17:43:46.341Z,98349.75
2023-01-12T17:46:49.804Z,98347.81
2023-01-12T17:49:55.087Z,98353.31
2023-01-12T17:53:00.587Z,98350.06
2023-01-12T17:56:06.095Z,98350.25
2023-01-12T17:59:14.262Z,98355.75
2023-01-12T18:02:18.581Z,98352.69
2023-01-12T18:05:21.921Z,98352.03
2023-01-12T18:08:27.364Z,98350.59
2023-01-12T18:11:33.620Z,98352.22
2023-01-12T18:14:39.893Z,98340.41
2023-01-12T18:17:43.280Z,98342.34
2023-01-12T18:20:48.529Z,98335.72
2023-01-12T18:23:54.819Z,98334.91
2023-01-12T18:27:00.296Z,98338.16
2023-01-12T18:30:03.563Z,98326.88
2023-01-12T18:33:09.629Z,98322.16
2023-01-12T18:36:16.098Z,98317.78
2023-01-12T18:39:21.447Z,98321.84
2023-01-12T18:42:42.266Z,98316.34
2023-01-12T18:45:46.151Z,98317.97
2023-01-12T18:48:49.429Z,98321.84
2023-01-12T18:52:12.410Z,98312.47
2023-01-12T18:55:17.559Z,98298.19
2023-01-12T18:58:22.592Z,98310.84
2023-01-12T19:01:26.059Z,98302.59
2023-01-12T19:04:52.598Z,98303.41
2023-01-12T19:08:25.600Z,98305.84
2023-01-12T19:11:30.925Z,98305.50
2023-01-12T19:14:52.477Z,98292.53
2023-01-12T19:17:56.125Z,98301.78
2023-01-12T19:21:19.071Z,98309.44
2023-01-12T19:24:40.287Z,98298.91
2023-01-12T19:28:02.564Z,98309.44
2023-01-12T19:31:10.787Z,98288.53
2023-01-12T19:34:14.238Z,98295.34
2023-01-12T19:37:18.034Z,98306.03
2023-01-12T19:40:26.722Z,98295.84
2023-01-12T19:43:33.877Z,98297.94
2023-01-12T19:46:38.264Z,98289.34
2023-01-12T19:49:42.251Z,98291.00
2023-01-12T19:52:46.249Z,98292.13
2023-01-12T19:56:02.524Z,98300.06
2023-01-12T19:59:07.792Z,98306.88
2023-01-12T20:02:14.471Z,98305.75
2023-01-12T20:05:22.625Z,98295.88
2023-01-12T20:08:30.060Z,98305.75
2023-01-12T20:11:33.785Z,98298.63
2023-01-12T20:14:38.763Z,98298.63
2023-01-12T20:17:43.026Z,98304.13
2023-01-12T20:20:48.391Z,98302.50
2023-01-12T20:23:51.780Z,98294.56
2023-01-12T20:26:55.803Z,98306.38
2023-01-12T20:30:01.209Z,98301.19
2023-01-12T20:33:05.046Z,98296.81
2023-01-12T20:36:12.375Z,98294.88
2023-01-12T20:39:17.445Z,98287.41
2023-01-12T20:42:20.862Z,98283.34
2023-01-12T20:45:29.511Z,98292.13
2023-01-12T20:48:32.799Z,98298.75
2023-01-12T20:51:36.566Z,98287.25
2023-01-12T20:54:39.955Z,98299.88
2023-01-12T20:57:45.880Z,98297.13
2023-01-12T21:00:50.989Z,98295.84
2023-01-12T21:03:54.847Z,98291.16
2023-01-12T21:06:58.454Z,98291.63
2023-01-12T21:10:03.413Z,98297.47
2023-01-12T21:13:07.621Z,98283.69
2023-01-12T21:16:17.770Z,98290.03
2023-01-12T21:19:23.015Z,98286.28
2023-01-12T21:22:27.926Z,98292.28
2023-01-12T21:25:31.182Z,98279.63
2023-01-12T21:28:35.963Z,98282.38
2023-01-12T21:31:40.621Z,98280.75
2023-01-12T21:34:44.268Z,98285.47
2023-01-12T21:37:47.567Z,98280.75
2023-01-12T21:45:28.172Z,98281.56
2023-01-12T21:48:33.276Z,98284.66
2023-01-12T21:51:36.621Z,98277.50
2023-01-12T21:54:40.273Z,98268.94
2023-01-12T22:03:15.780Z,98266.50
2023-01-12T22:06:20.750Z,98260.19
2023-01-12T22:09:24.714Z,98252.72
2023-01-12T22:12:27.867Z,98249.47
2023-01-12T22:16:13.518Z,98257.41
2023-01-12T22:19:17.115Z,98250.78
2023-01-12T22:22:22.060Z,98257.41
2023-01-12T22:25:25.378Z,98243.47
2023-01-12T22:28:29.035Z,98257.09
2023-01-12T22:31:32.310Z,98265.88
2023-01-12T22:34:35.931Z,98258.09
2023-01-12T22:37:41.838Z,98252.25
2023-01-12T22:40:45.451Z,98244.47
2023-01-12T22:43:49.985Z,98244.34
2023-01-12T22:46:53.691Z,98258.44
2023-01-12T22:49:56.896Z,98245.16
2023-01-12T22:53:01.834Z,98251.78
2023-01-12T22:56:06.795Z,98240.16
2023-01-12T22:59:10.786Z,98243.53
2023-01-12T23:02:28.565Z,98242.72
2023-01-12T23:05:36.160Z,98243.72
2023-01-12T23:08:41.973Z,98235.75
2023-01-12T23:11:45.593Z,98238.69
2023-01-12T23:14:49.009Z,98235.94
2023-01-12T23:17:53.577Z,98231.25
2023-01-12T23:21:03.346Z,98233.50
2023-01-12T23:24:08.731Z,98242.25
2023-01-12T23:27:11.961Z,98238.34
2023-01-12T23:30:16.352Z,98217.63
2023-01-12T23:33:19.712Z,98229.94
2023-01-12T23:36:26.411Z,98228.16
2023-01-12T23:39:31.209Z,98228.97
2023-01-12T23:42:34.758Z,98230.59
2023-01-12T23:45:38.456Z,98227.00
2023-01-12T23:48:42.171Z,98224.13
2023-01-12T23:51:46.725Z,98228.16
2023-01-12T23:54:53.312Z,98238.03
2023-01-12T23:57:56.612Z,98222.31
